CYOW/YOW METAR and TAF weather

Enter ICAO airport designator
Station Type Date Time Source
CYOW METAR 2019/02/23 02:00 UTC NOAA

CYOW 230200Z 25003KT 15SM SKC M06/M10 A3046 RMK SLP324


Station Type Date Time Source
CYOW Decoded METAR 2019/02/23 02:00 UTC NOAA

Ottawa Int'L. Ont., Canada (CYOW) 45-19N 075-40W 114M
Feb 22, 2019 - 09:00 PM EST / 2019.02.23 0200 UTC
Wind: from the WSW (250 degrees) at 3 MPH (3 KT):0
Visibility: 15 mile(s):0
Sky conditions: clear
Temperature: 21 F (-6 C)
Dew Point: 14 F (-10 C)
Relative Humidity: 73%
Pressure (altimeter): 30.46 in. Hg (1031 hPa)
ob: CYOW 230200Z 25003KT 15SM SKC M06/M10 A3046 RMK SLP324
cycle: 2

Station Type Date Time Source
CYOW TAF 2019/02/23 03:39 UTC NOAA

TAF CYOW 230238Z 2303/2324 25004KT P6SM FEW030
FM230400 VRB03KT P6SM SCT030
TEMPO 2304/2312 BKN030
FM231200 09005KT P6SM SCT180 PROB30 2312/2315 2SM BR BKN004
FM231500 17005KT P6SM SCT015 BKN140
FM232200 08010KT P6SM OVC120
RMK NXT FCST BY 230600Z


Example: see airport list